sensor_id;sensor_type;location;lat;lon;timestamp;temperature;humidity
24678;DHT22;12800;53.094;8.778;2023-03-01T00:00:14;2.70;71.10
24678;DHT22;12800;53.094;8.778;2023-03-01T00:02:40;2.70;71.20
24678;DHT22;12800;53.094;8.778;2023-03-01T00:05:06;2.70;71.10
24678;DHT22;12800;53.094;8.778;2023-03-01T00:07:33;2.70;71.10
24678;DHT22;12800;53.094;8.778;2023-03-01T00:09:58;2.70;71.20
24678;DHT22;12800;53.094;8.778;2023-03-01T00:12:24;2.70;71.20
24678;DHT22;12800;53.094;8.778;2023-03-01T00:14:50;2.60;71.20
24678;DHT22;12800;53.094;8.778;2023-03-01T00:17:15;2.60;71.30
24678;DHT22;12800;53.094;8.778;2023-03-01T00:19:41;2.60;71.20
24678;DHT22;12800;53.094;8.778;2023-03-01T00:22:07;2.60;71.20
24678;DHT22;12800;53.094;8.778;2023-03-01T00:24:32;2.50;71.10
24678;DHT22;12800;53.094;8.778;2023-03-01T00:26:58;2.50;71.20
24678;DHT22;12800;53.094;8.778;2023-03-01T00:29:24;2.50;71.20
24678;DHT22;12800;53.094;8.778;2023-03-01T00:31:50;2.50;71.30
24678;DHT22;12800;53.094;8.778;2023-03-01T00:34:15;2.40;71.20
24678;DHT22;12800;53.094;8.778;2023-03-01T00:36:41;2.40;71.30
24678;DHT22;12800;53.094;8.778;2023-03-01T00:39:11;2.40;71.60
24678;DHT22;12800;53.094;8.778;2023-03-01T00:41:37;2.30;71.60
24678;DHT22;12800;53.094;8.778;2023-03-01T00:44:02;2.30;71.70
24678;DHT22;12800;53.094;8.778;2023-03-01T00:46:28;2.30;71.90
24678;DHT22;12800;53.094;8.778;2023-03-01T00:48:56;2.30;72.00
24678;DHT22;12800;53.094;8.778;2023-03-01T00:51:25;2.20;72.80
24678;DHT22;12800;53.094;8.778;2023-03-01T00:53:58;2.20;72.20
24678;DHT22;12800;53.094;8.778;2023-03-01T00:56:24;2.20;72.40
24678;DHT22;12800;53.094;8.778;2023-03-01T00:58:50;2.20;72.50
24678;DHT22;12800;53.094;8.778;2023-03-01T01:01:19;2.20;72.60
24678;DHT22;12800;53.094;8.778;2023-03-01T01:06:25;2.10;72.80
24678;DHT22;12800;53.094;8.778;2023-03-01T01:08:52;2.10;72.90
24678;DHT22;12800;53.094;8.778;2023-03-01T01:11:19;2.10;73.00
24678;DHT22;12800;53.094;8.778;2023-03-01T01:13:46;2.10;73.00
24678;DHT22;12800;53.094;8.778;2023-03-01T01:16:12;2.10;73.00
24678;DHT22;12800;53.094;8.778;2023-03-01T01:18:38;2.10;73.00
24678;DHT22;12800;53.094;8.778;2023-03-01T01:21:09;2.10;73.10
24678;DHT22;12800;53.094;8.778;2023-03-01T01:23:37;2.00;73.10
24678;DHT22;12800;53.094;8.778;2023-03-01T01:26:12;2.00;73.20
24678;DHT22;12800;53.094;8.778;2023-03-01T01:28:37;2.00;73.30
24678;DHT22;12800;53.094;8.778;2023-03-01T01:31:04;2.00;73.30
24678;DHT22;12800;53.094;8.778;2023-03-01T01:33:30;2.00;73.30
24678;DHT22;12800;53.094;8.778;2023-03-01T01:35:56;2.00;73.40
24678;DHT22;12800;53.094;8.778;2023-03-01T01:38:22;2.00;73.40
24678;DHT22;12800;53.094;8.778;2023-03-01T01:40:49;2.00;73.60
24678;DHT22;12800;53.094;8.778;2023-03-01T01:43:22;2.00;73.70
24678;DHT22;12800;53.094;8.778;2023-03-01T01:45:48;2.00;73.60
24678;DHT22;12800;53.094;8.778;2023-03-01T01:48:19;2.00;73.60
24678;DHT22;12800;53.094;8.778;2023-03-01T01:50:51;2.00;73.60
24678;DHT22;12800;53.094;8.778;2023-03-01T01:53:19;2.00;73.60
24678;DHT22;12800;53.094;8.778;2023-03-01T01:55:49;2.00;73.60
24678;DHT22;12800;53.094;8.778;2023-03-01T01:58:19;2.00;73.60
24678;DHT22;12800;53.094;8.778;2023-03-01T02:00:45;2.00;73.50
24678;DHT22;12800;53.094;8.778;2023-03-01T02:03:14;2.00;73.50
24678;DHT22;12800;53.094;8.778;2023-03-01T02:08:35;2.00;73.40
24678;DHT22;12800;53.094;8.778;2023-03-01T02:11:02;2.00;73.40
24678;DHT22;12800;53.094;8.778;2023-03-01T02:13:30;2.00;73.40
24678;DHT22;12800;53.094;8.778;2023-03-01T02:15:56;2.00;73.40
24678;DHT22;12800;53.094;8.778;2023-03-01T02:18:23;2.00;73.50
24678;DHT22;12800;53.094;8.778;2023-03-01T02:23:24;2.00;73.40
24678;DHT22;12800;53.094;8.778;2023-03-01T02:28:36;1.90;73.40
24678;DHT22;12800;53.094;8.778;2023-03-01T02:31:05;1.90;73.40
24678;DHT22;12800;53.094;8.778;2023-03-01T02:33:51;1.90;73.40
24678;DHT22;12800;53.094;8.778;2023-03-01T02:36:21;1.90;73.40
24678;DHT22;12800;53.094;8.778;2023-03-01T02:38:50;1.90;73.40
24678;DHT22;12800;53.094;8.778;2023-03-01T02:41:17;1.90;73.40
24678;DHT22;12800;53.094;8.778;2023-03-01T02:43:45;1.90;73.40
24678;DHT22;12800;53.094;8.778;2023-03-01T02:46:20;1.90;73.40
24678;DHT22;12800;53.094;8.778;2023-03-01T02:48:58;1.90;73.50
24678;DHT22;12800;53.094;8.778;2023-03-01T02:54:10;1.90;73.40
24678;DHT22;12800;53.094;8.778;2023-03-01T02:56:38;1.90;73.40
24678;DHT22;12800;53.094;8.778;2023-03-01T02:59:04;1.90;73.50
24678;DHT22;12800;53.094;8.778;2023-03-01T03:01:30;1.90;73.40
24678;DHT22;12800;53.094;8.778;2023-03-01T03:04:06;1.90;73.50
24678;DHT22;12800;53.094;8.778;2023-03-01T03:06:32;1.90;73.50
24678;DHT22;12800;53.094;8.778;2023-03-01T03:08:58;1.90;73.50
24678;DHT22;12800;53.094;8.778;2023-03-01T03:11:24;1.80;73.40
24678;DHT22;12800;53.094;8.778;2023-03-01T03:13:49;1.80;73.50
24678;DHT22;12800;53.094;8.778;2023-03-01T03:16:15;1.90;73.50
24678;DHT22;12800;53.094;8.778;2023-03-01T03:18:41;1.80;73.50
24678;DHT22;12800;53.094;8.778;2023-03-01T03:21:11;1.80;73.60
24678;DHT22;12800;53.094;8.778;2023-03-01T03:23:37;1.80;73.60
24678;DHT22;12800;53.094;8.778;2023-03-01T03:26:04;1.80;73.50
24678;DHT22;12800;53.094;8.778;2023-03-01T03:28:30;1.80;73.50
24678;DHT22;12800;53.094;8.778;2023-03-01T03:30:56;1.80;73.50
24678;DHT22;12800;53.094;8.778;2023-03-01T03:33:22;1.80;73.60
24678;DHT22;12800;53.094;8.778;2023-03-01T03:35:49;1.80;73.70
24678;DHT22;12800;53.094;8.778;2023-03-01T03:38:17;1.80;73.80
24678;DHT22;12800;53.094;8.778;2023-03-01T03:41:00;1.80;73.90
24678;DHT22;12800;53.094;8.778;2023-03-01T03:43:28;1.80;74.80
24678;DHT22;12800;53.094;8.778;2023-03-01T03:45:53;1.80;74.20
24678;DHT22;12800;53.094;8.778;2023-03-01T03:48:19;1.80;74.30
24678;DHT22;12800;53.094;8.778;2023-03-01T03:50:53;1.80;74.40
24678;DHT22;12800;53.094;8.778;2023-03-01T03:53:21;1.80;74.40
24678;DHT22;12800;53.094;8.778;2023-03-01T03:55:47;1.80;74.50
24678;DHT22;12800;53.094;8.778;2023-03-01T03:58:14;1.80;74.50
24678;DHT22;12800;53.094;8.778;2023-03-01T04:00:42;1.80;74.70
24678;DHT22;12800;53.094;8.778;2023-03-01T04:03:09;1.80;75.00
24678;DHT22;12800;53.094;8.778;2023-03-01T04:05:36;1.70;75.20
24678;DHT22;12800;53.094;8.778;2023-03-01T04:08:02;1.70;75.40
24678;DHT22;12800;53.094;8.778;2023-03-01T04:10:36;1.80;75.70
24678;DHT22;12800;53.094;8.778;2023-03-01T04:13:03;1.80;75.70
24678;DHT22;12800;53.094;8.778;2023-03-01T04:15:28;1.80;75.70
24678;DHT22;12800;53.094;8.778;2023-03-01T04:17:55;1.80;75.80
24678;DHT22;12800;53.094;8.778;2023-03-01T04:20:23;1.80;75.50
24678;DHT22;12800;53.094;8.778;2023-03-01T04:22:51;1.80;75.60
24678;DHT22;12800;53.094;8.778;2023-03-01T04:25:17;1.80;75.80
24678;DHT22;12800;53.094;8.778;2023-03-01T04:27:43;1.80;75.80
24678;DHT22;12800;53.094;8.778;2023-03-01T04:30:09;1.80;76.00
24678;DHT22;12800;53.094;8.778;2023-03-01T04:32:35;1.70;75.80
24678;DHT22;12800;53.094;8.778;2023-03-01T04:35:00;1.70;75.50
24678;DHT22;12800;53.094;8.778;2023-03-01T04:37:26;1.70;75.50
24678;DHT22;12800;53.094;8.778;2023-03-01T04:39:52;1.70;75.70
24678;DHT22;12800;53.094;8.778;2023-03-01T04:42:18;1.70;75.70
24678;DHT22;12800;53.094;8.778;2023-03-01T04:44:44;1.60;75.50
24678;DHT22;12800;53.094;8.778;2023-03-01T04:47:10;1.60;75.70
24678;DHT22;12800;53.094;8.778;2023-03-01T04:49:35;1.60;75.80
24678;DHT22;12800;53.094;8.778;2023-03-01T04:52:02;1.60;75.90
24678;DHT22;12800;53.094;8.778;2023-03-01T04:54:29;1.60;76.10
24678;DHT22;12800;53.094;8.778;2023-03-01T04:56:54;1.60;76.10
24678;DHT22;12800;53.094;8.778;2023-03-01T04:59:20;1.60;76.00
24678;DHT22;12800;53.094;8.778;2023-03-01T05:01:53;1.60;76.00
24678;DHT22;12800;53.094;8.778;2023-03-01T05:04:21;1.60;76.10
24678;DHT22;12800;53.094;8.778;2023-03-01T05:06:46;1.60;76.00
24678;DHT22;12800;53.094;8.778;2023-03-01T05:09:12;1.60;76.00
24678;DHT22;12800;53.094;8.778;2023-03-01T05:11:38;1.50;75.90
24678;DHT22;12800;53.094;8.778;2023-03-01T05:14:05;1.50;76.00
24678;DHT22;12800;53.094;8.778;2023-03-01T05:16:31;1.50;75.90
24678;DHT22;12800;53.094;8.778;2023-03-01T05:18:58;1.50;75.90
24678;DHT22;12800;53.094;8.778;2023-03-01T05:21:24;1.50;75.90
24678;DHT22;12800;53.094;8.778;2023-03-01T05:23:50;1.50;76.00
24678;DHT22;12800;53.094;8.778;2023-03-01T05:26:17;1.50;76.10
24678;DHT22;12800;53.094;8.778;2023-03-01T05:28:43;1.50;76.20
24678;DHT22;12800;53.094;8.778;2023-03-01T05:31:09;1.50;77.10
24678;DHT22;12800;53.094;8.778;2023-03-01T05:33:39;1.50;76.40
24678;DHT22;12800;53.094;8.778;2023-03-01T05:36:06;1.50;76.50
24678;DHT22;12800;53.094;8.778;2023-03-01T05:38:32;1.40;76.40
24678;DHT22;12800;53.094;8.778;2023-03-01T05:40:58;1.40;76.50
24678;DHT22;12800;53.094;8.778;2023-03-01T05:43:23;1.40;76.50
24678;DHT22;12800;53.094;8.778;2023-03-01T05:45:49;1.40;76.60
24678;DHT22;12800;53.094;8.778;2023-03-01T05:48:15;1.40;76.80
24678;DHT22;12800;53.094;8.778;2023-03-01T05:50:43;1.40;76.80
24678;DHT22;12800;53.094;8.778;2023-03-01T05:53:16;1.40;76.80
24678;DHT22;12800;53.094;8.778;2023-03-01T05:55:42;1.50;76.80
24678;DHT22;12800;53.094;8.778;2023-03-01T05:58:11;1.40;76.80
24678;DHT22;12800;53.094;8.778;2023-03-01T06:00:39;1.40;76.80
24678;DHT22;12800;53.094;8.778;2023-03-01T06:03:05;1.40;76.70
24678;DHT22;12800;53.094;8.778;2023-03-01T06:05:31;1.50;76.80
24678;DHT22;12800;53.094;8.778;2023-03-01T06:08:01;1.40;76.80
24678;DHT22;12800;53.094;8.778;2023-03-01T06:10:27;1.40;76.90
24678;DHT22;12800;53.094;8.778;2023-03-01T06:12:53;1.50;77.00
24678;DHT22;12800;53.094;8.778;2023-03-01T06:15:19;1.50;77.10
24678;DHT22;12800;53.094;8.778;2023-03-01T06:17:45;1.50;77.00
24678;DHT22;12800;53.094;8.778;2023-03-01T06:20:20;1.50;77.00
24678;DHT22;12800;53.094;8.778;2023-03-01T06:22:46;1.50;77.00
24678;DHT22;12800;53.094;8.778;2023-03-01T06:25:15;1.50;77.10
24678;DHT22;12800;53.094;8.778;2023-03-01T06:27:41;1.50;77.20
24678;DHT22;12800;53.094;8.778;2023-03-01T06:30:08;1.50;77.30
24678;DHT22;12800;53.094;8.778;2023-03-01T06:32:35;1.50;77.30
24678;DHT22;12800;53.094;8.778;2023-03-01T06:35:00;1.50;77.30
24678;DHT22;12800;53.094;8.778;2023-03-01T06:37:26;1.50;77.30
24678;DHT22;12800;53.094;8.778;2023-03-01T06:39:52;1.50;77.40
24678;DHT22;12800;53.094;8.778;2023-03-01T06:42:17;1.60;77.40
24678;DHT22;12800;53.094;8.778;2023-03-01T06:44:44;1.60;77.40
24678;DHT22;12800;53.094;8.778;2023-03-01T06:47:10;1.60;77.50
24678;DHT22;12800;53.094;8.778;2023-03-01T06:49:35;1.60;77.50
24678;DHT22;12800;53.094;8.778;2023-03-01T06:52:01;1.60;77.60
24678;DHT22;12800;53.094;8.778;2023-03-01T06:54:26;1.60;77.50
24678;DHT22;12800;53.094;8.778;2023-03-01T06:56:52;1.60;77.50
24678;DHT22;12800;53.094;8.778;2023-03-01T06:59:18;1.70;77.50
24678;DHT22;12800;53.094;8.778;2023-03-01T07:01:43;1.70;77.50
24678;DHT22;12800;53.094;8.778;2023-03-01T07:04:10;1.70;77.40
24678;DHT22;12800;53.094;8.778;2023-03-01T07:06:36;1.70;77.40
24678;DHT22;12800;53.094;8.778;2023-03-01T07:09:02;1.80;77.50
24678;DHT22;12800;53.094;8.778;2023-03-01T07:11:27;1.80;77.40
24678;DHT22;12800;53.094;8.778;2023-03-01T07:13:53;1.80;77.40
24678;DHT22;12800;53.094;8.778;2023-03-01T07:16:18;1.80;77.50
24678;DHT22;12800;53.094;8.778;2023-03-01T07:18:45;1.90;77.60
24678;DHT22;12800;53.094;8.778;2023-03-01T07:21:13;1.90;77.60
24678;DHT22;12800;53.094;8.778;2023-03-01T07:23:39;2.00;77.70
24678;DHT22;12800;53.094;8.778;2023-03-01T07:26:05;2.10;77.90
24678;DHT22;12800;53.094;8.778;2023-03-01T07:28:30;2.20;77.90
24678;DHT22;12800;53.094;8.778;2023-03-01T07:31:04;2.20;77.80
24678;DHT22;12800;53.094;8.778;2023-03-01T07:33:30;2.30;77.70
24678;DHT22;12800;53.094;8.778;2023-03-01T07:36:00;2.40;77.60
24678;DHT22;12800;53.094;8.778;2023-03-01T07:38:27;2.50;77.60
24678;DHT22;12800;53.094;8.778;2023-03-01T07:40:53;2.60;77.70
24678;DHT22;12800;53.094;8.778;2023-03-01T07:43:19;2.70;77.60
24678;DHT22;12800;53.094;8.778;2023-03-01T07:45:46;2.70;77.60
24678;DHT22;12800;53.094;8.778;2023-03-01T07:48:11;2.80;77.50
24678;DHT22;12800;53.094;8.778;2023-03-01T07:50:37;2.90;77.40
24678;DHT22;12800;53.094;8.778;2023-03-01T07:53:02;3.00;77.40
24678;DHT22;12800;53.094;8.778;2023-03-01T07:55:28;3.00;77.30
24678;DHT22;12800;53.094;8.778;2023-03-01T07:57:54;3.00;77.10
24678;DHT22;12800;53.094;8.778;2023-03-01T08:00:19;3.00;76.90
24678;DHT22;12800;53.094;8.778;2023-03-01T08:02:45;3.10;76.70
24678;DHT22;12800;53.094;8.778;2023-03-01T08:05:11;3.10;76.60
24678;DHT22;12800;53.094;8.778;2023-03-01T08:07:36;3.10;76.50
24678;DHT22;12800;53.094;8.778;2023-03-01T08:10:03;3.10;76.50
24678;DHT22;12800;53.094;8.778;2023-03-01T08:12:28;3.10;76.60
24678;DHT22;12800;53.094;8.778;2023-03-01T08:14:54;3.20;76.70
24678;DHT22;12800;53.094;8.778;2023-03-01T08:17:20;3.30;76.80
24678;DHT22;12800;53.094;8.778;2023-03-01T08:19:46;3.30;76.70
24678;DHT22;12800;53.094;8.778;2023-03-01T08:22:11;3.40;76.70
24678;DHT22;12800;53.094;8.778;2023-03-01T08:24:37;3.40;76.50
24678;DHT22;12800;53.094;8.778;2023-03-01T08:27:03;3.50;76.70
24678;DHT22;12800;53.094;8.778;2023-03-01T08:29:31;3.60;76.60
24678;DHT22;12800;53.094;8.778;2023-03-01T08:31:57;3.70;77.50
24678;DHT22;12800;53.094;8.778;2023-03-01T08:34:22;3.80;76.50
24678;DHT22;12800;53.094;8.778;2023-03-01T08:36:48;3.80;76.10
24678;DHT22;12800;53.094;8.778;2023-03-01T08:39:17;3.90;76.10
24678;DHT22;12800;53.094;8.778;2023-03-01T08:41:43;4.00;75.80
24678;DHT22;12800;53.094;8.778;2023-03-01T08:44:10;4.10;75.50
24678;DHT22;12800;53.094;8.778;2023-03-01T08:46:39;4.10;75.30
24678;DHT22;12800;53.094;8.778;2023-03-01T08:49:16;4.20;75.50
24678;DHT22;12800;53.094;8.778;2023-03-01T08:51:43;4.30;75.30
24678;DHT22;12800;53.094;8.778;2023-03-01T08:54:18;4.30;75.00
24678;DHT22;12800;53.094;8.778;2023-03-01T08:56:44;4.40;74.70
24678;DHT22;12800;53.094;8.778;2023-03-01T08:59:14;4.50;74.20
24678;DHT22;12800;53.094;8.778;2023-03-01T09:01:40;4.50;73.70
24678;DHT22;12800;53.094;8.778;2023-03-01T09:04:08;4.60;73.70
24678;DHT22;12800;53.094;8.778;2023-03-01T09:06:35;4.70;73.70
24678;DHT22;12800;53.094;8.778;2023-03-01T09:09:02;4.70;73.50
24678;DHT22;12800;53.094;8.778;2023-03-01T09:11:28;4.80;73.50
24678;DHT22;12800;53.094;8.778;2023-03-01T09:13:55;4.90;73.10
24678;DHT22;12800;53.094;8.778;2023-03-01T09:16:22;4.90;72.70
24678;DHT22;12800;53.094;8.778;2023-03-01T09:18:54;5.00;72.00
24678;DHT22;12800;53.094;8.778;2023-03-01T09:21:22;5.00;71.60
24678;DHT22;12800;53.094;8.778;2023-03-01T09:23:48;5.00;71.20
24678;DHT22;12800;53.094;8.778;2023-03-01T09:26:19;5.10;71.00
24678;DHT22;12800;53.094;8.778;2023-03-01T09:28:47;5.20;71.00
24678;DHT22;12800;53.094;8.778;2023-03-01T09:31:14;5.20;70.30
24678;DHT22;12800;53.094;8.778;2023-03-01T09:33:41;5.30;69.50
24678;DHT22;12800;53.094;8.778;2023-03-01T09:36:12;5.40;69.20
24678;DHT22;12800;53.094;8.778;2023-03-01T09:38:38;5.50;68.90
24678;DHT22;12800;53.094;8.778;2023-03-01T09:46:37;5.70;67.30
24678;DHT22;12800;53.094;8.778;2023-03-01T09:51:42;5.80;66.70
24678;DHT22;12800;53.094;8.778;2023-03-01T09:54:09;5.90;66.50
24678;DHT22;12800;53.094;8.778;2023-03-01T09:57:06;5.90;66.60
24678;DHT22;12800;53.094;8.778;2023-03-01T10:02:49;6.10;66.70
24678;DHT22;12800;53.094;8.778;2023-03-01T10:10:38;6.20;65.00
24678;DHT22;12800;53.094;8.778;2023-03-01T10:15:58;6.20;64.40
24678;DHT22;12800;53.094;8.778;2023-03-01T10:18:29;6.10;63.80
24678;DHT22;12800;53.094;8.778;2023-03-01T10:21:00;6.10;63.40
24678;DHT22;12800;53.094;8.778;2023-03-01T10:23:30;6.10;64.00
24678;DHT22;12800;53.094;8.778;2023-03-01T10:26:08;6.10;63.60
24678;DHT22;12800;53.094;8.778;2023-03-01T10:31:12;6.10;63.60
24678;DHT22;12800;53.094;8.778;2023-03-01T10:33:39;6.10;63.40
24678;DHT22;12800;53.094;8.778;2023-03-01T10:36:05;6.10;63.30
24678;DHT22;12800;53.094;8.778;2023-03-01T10:38:54;6.20;63.40
24678;DHT22;12800;53.094;8.778;2023-03-01T10:41:21;6.20;63.40
24678;DHT22;12800;53.094;8.778;2023-03-01T10:43:51;6.20;63.50
24678;DHT22;12800;53.094;8.778;2023-03-01T10:46:35;6.20;63.60
24678;DHT22;12800;53.094;8.778;2023-03-01T10:49:07;6.30;64.00
24678;DHT22;12800;53.094;8.778;2023-03-01T10:51:33;6.30;64.70
24678;DHT22;12800;53.094;8.778;2023-03-01T10:53:58;6.40;66.10
24678;DHT22;12800;53.094;8.778;2023-03-01T10:56:24;6.40;65.60
24678;DHT22;12800;53.094;8.778;2023-03-01T10:59:04;6.50;65.80
24678;DHT22;12800;53.094;8.778;2023-03-01T11:01:33;6.50;66.00
24678;DHT22;12800;53.094;8.778;2023-03-01T11:06:31;6.60;66.60
24678;DHT22;12800;53.094;8.778;2023-03-01T11:08:57;6.70;67.00
24678;DHT22;12800;53.094;8.778;2023-03-01T11:11:38;6.80;67.20
24678;DHT22;12800;53.094;8.778;2023-03-01T11:14:17;6.90;67.70
24678;DHT22;12800;53.094;8.778;2023-03-01T11:16:45;7.00;67.90
24678;DHT22;12800;53.094;8.778;2023-03-01T11:24:38;7.30;68.50
24678;DHT22;12800;53.094;8.778;2023-03-01T11:27:54;7.30;68.40
24678;DHT22;12800;53.094;8.778;2023-03-01T11:32:41;7.50;68.60
24678;DHT22;12800;53.094;8.778;2023-03-01T11:35:18;7.50;68.60
24678;DHT22;12800;53.094;8.778;2023-03-01T11:38:03;7.60;68.60
24678;DHT22;12800;53.094;8.778;2023-03-01T11:40:34;7.60;68.70
24678;DHT22;12800;53.094;8.778;2023-03-01T11:49:15;7.80;68.40
24678;DHT22;12800;53.094;8.778;2023-03-01T12:08:14;8.00;68.30
24678;DHT22;12800;53.094;8.778;2023-03-01T12:16:10;8.10;68.20
24678;DHT22;12800;53.094;8.778;2023-03-01T12:19:01;8.10;68.10
24678;DHT22;12800;53.094;8.778;2023-03-01T12:25:10;8.20;68.40
24678;DHT22;12800;53.094;8.778;2023-03-01T12:33:21;8.30;68.30
24678;DHT22;12800;53.094;8.778;2023-03-01T12:49:57;8.50;67.80
24678;DHT22;12800;53.094;8.778;2023-03-01T12:52:38;8.50;67.70
24678;DHT22;12800;53.094;8.778;2023-03-01T12:55:16;8.50;67.90
24678;DHT22;12800;53.094;8.778;2023-03-01T12:57:57;8.50;68.10
24678;DHT22;12800;53.094;8.778;2023-03-01T13:00:32;8.50;68.00
24678;DHT22;12800;53.094;8.778;2023-03-01T13:08:22;8.60;67.70
24678;DHT22;12800;53.094;8.778;2023-03-01T13:11:00;8.70;67.50
24678;DHT22;12800;53.094;8.778;2023-03-01T13:13:28;8.60;67.30
24678;DHT22;12800;53.094;8.778;2023-03-01T13:15:55;8.70;67.50
24678;DHT22;12800;53.094;8.778;2023-03-01T13:20:55;8.80;67.40
24678;DHT22;12800;53.094;8.778;2023-03-01T13:31:00;9.00;67.20
24678;DHT22;12800;53.094;8.778;2023-03-01T13:35:56;9.10;67.00
24678;DHT22;12800;53.094;8.778;2023-03-01T13:38:48;9.10;66.70
24678;DHT22;12800;53.094;8.778;2023-03-01T13:46:44;9.10;66.70
24678;DHT22;12800;53.094;8.778;2023-03-01T13:49:15;9.10;66.80
24678;DHT22;12800;53.094;8.778;2023-03-01T13:51:41;9.20;66.90
24678;DHT22;12800;53.094;8.778;2023-03-01T13:54:12;9.20;66.80
24678;DHT22;12800;53.094;8.778;2023-03-01T13:56:39;9.20;66.50
24678;DHT22;12800;53.094;8.778;2023-03-01T13:59:20;9.20;66.60
24678;DHT22;12800;53.094;8.778;2023-03-01T14:01:56;9.30;66.50
24678;DHT22;12800;53.094;8.778;2023-03-01T14:04:28;9.30;66.40
24678;DHT22;12800;53.094;8.778;2023-03-01T14:07:18;9.40;66.40
24678;DHT22;12800;53.094;8.778;2023-03-01T14:09:51;9.40;66.40
24678;DHT22;12800;53.094;8.778;2023-03-01T14:15:19;9.50;66.50
24678;DHT22;12800;53.094;8.778;2023-03-01T14:20:37;9.60;66.10
24678;DHT22;12800;53.094;8.778;2023-03-01T14:23:11;9.60;66.10
24678;DHT22;12800;53.094;8.778;2023-03-01T14:25:38;9.60;66.10
24678;DHT22;12800;53.094;8.778;2023-03-01T14:28:12;9.70;66.10
24678;DHT22;12800;53.094;8.778;2023-03-01T14:30:50;9.70;66.00
24678;DHT22;12800;53.094;8.778;2023-03-01T14:33:27;9.70;65.70
24678;DHT22;12800;53.094;8.778;2023-03-01T14:36:00;9.70;65.90
24678;DHT22;12800;53.094;8.778;2023-03-01T14:38:41;9.80;65.70
24678;DHT22;12800;53.094;8.778;2023-03-01T14:43:40;9.90;65.50
24678;DHT22;12800;53.094;8.778;2023-03-01T14:46:16;9.90;65.40
24678;DHT22;12800;53.094;8.778;2023-03-01T14:48:42;9.90;65.20
24678;DHT22;12800;53.094;8.778;2023-03-01T14:51:07;10.00;65.10
24678;DHT22;12800;53.094;8.778;2023-03-01T14:53:33;10.00;65.00
24678;DHT22;12800;53.094;8.778;2023-03-01T14:56:01;10.10;65.00
24678;DHT22;12800;53.094;8.778;2023-03-01T14:58:32;10.10;65.00
24678;DHT22;12800;53.094;8.778;2023-03-01T15:01:00;10.20;65.20
24678;DHT22;12800;53.094;8.778;2023-03-01T15:03:38;10.20;65.00
24678;DHT22;12800;53.094;8.778;2023-03-01T15:06:07;10.30;65.00
24678;DHT22;12800;53.094;8.778;2023-03-01T15:08:35;10.40;65.00
24678;DHT22;12800;53.094;8.778;2023-03-01T15:11:19;10.40;64.80
24678;DHT22;12800;53.094;8.778;2023-03-01T15:13:47;10.50;64.70
24678;DHT22;12800;53.094;8.778;2023-03-01T15:16:16;10.40;64.60
24678;DHT22;12800;53.094;8.778;2023-03-01T15:18:48;10.30;64.60
24678;DHT22;12800;53.094;8.778;2023-03-01T15:21:21;10.20;64.80
24678;DHT22;12800;53.094;8.778;2023-03-01T15:23:57;10.20;65.00
24678;DHT22;12800;53.094;8.778;2023-03-01T15:26:30;10.10;65.10
24678;DHT22;12800;53.094;8.778;2023-03-01T15:28:57;10.10;65.40
24678;DHT22;12800;53.094;8.778;2023-03-01T15:31:29;10.00;65.60
24678;DHT22;12800;53.094;8.778;2023-03-01T15:34:35;10.00;65.90
24678;DHT22;12800;53.094;8.778;2023-03-01T15:37:35;10.00;66.10
24678;DHT22;12800;53.094;8.778;2023-03-01T15:40:17;9.90;66.40
24678;DHT22;12800;53.094;8.778;2023-03-01T15:42:43;9.90;66.50
24678;DHT22;12800;53.094;8.778;2023-03-01T15:45:19;9.90;66.50
24678;DHT22;12800;53.094;8.778;2023-03-01T15:48:03;9.90;66.60
24678;DHT22;12800;53.094;8.778;2023-03-01T15:50:34;9.80;66.50
24678;DHT22;12800;53.094;8.778;2023-03-01T15:53:05;9.70;66.60
24678;DHT22;12800;53.094;8.778;2023-03-01T15:55:36;9.70;66.80
24678;DHT22;12800;53.094;8.778;2023-03-01T15:58:23;9.60;67.00
24678;DHT22;12800;53.094;8.778;2023-03-01T16:00:49;9.50;67.30
24678;DHT22;12800;53.094;8.778;2023-03-01T16:03:21;9.50;67.50
24678;DHT22;12800;53.094;8.778;2023-03-01T16:05:48;9.50;67.80
24678;DHT22;12800;53.094;8.778;2023-03-01T16:08:15;9.40;67.90
24678;DHT22;12800;53.094;8.778;2023-03-01T16:10:41;9.30;68.00
24678;DHT22;12800;53.094;8.778;2023-03-01T16:13:13;9.30;68.20
24678;DHT22;12800;53.094;8.778;2023-03-01T16:15:40;9.20;68.60
24678;DHT22;12800;53.094;8.778;2023-03-01T16:18:06;9.20;68.60
24678;DHT22;12800;53.094;8.778;2023-03-01T16:20:33;9.10;68.80
24678;DHT22;12800;53.094;8.778;2023-03-01T16:23:01;9.00;69.00
24678;DHT22;12800;53.094;8.778;2023-03-01T16:25:27;8.90;69.30
24678;DHT22;12800;53.094;8.778;2023-03-01T16:27:52;8.90;69.60
24678;DHT22;12800;53.094;8.778;2023-03-01T16:30:20;8.80;69.80
24678;DHT22;12800;53.094;8.778;2023-03-01T16:32:47;8.70;70.10
24678;DHT22;12800;53.094;8.778;2023-03-01T16:35:15;8.60;70.40
24678;DHT22;12800;53.094;8.778;2023-03-01T16:37:41;8.60;70.90
24678;DHT22;12800;53.094;8.778;2023-03-01T16:40:22;8.50;71.10
24678;DHT22;12800;53.094;8.778;2023-03-01T16:42:50;8.40;71.50
24678;DHT22;12800;53.094;8.778;2023-03-01T16:45:16;8.30;71.70
24678;DHT22;12800;53.094;8.778;2023-03-01T16:47:42;8.30;72.00
24678;DHT22;12800;53.094;8.778;2023-03-01T16:50:08;8.20;72.30
24678;DHT22;12800;53.094;8.778;2023-03-01T16:52:34;8.10;72.50
24678;DHT22;12800;53.094;8.778;2023-03-01T16:55:00;8.10;72.80
24678;DHT22;12800;53.094;8.778;2023-03-01T16:57:25;8.10;73.00
24678;DHT22;12800;53.094;8.778;2023-03-01T16:59:51;8.00;73.10
24678;DHT22;12800;53.094;8.778;2023-03-01T17:02:18;8.00;73.30
24678;DHT22;12800;53.094;8.778;2023-03-01T17:04:50;7.90;73.40
24678;DHT22;12800;53.094;8.778;2023-03-01T17:07:16;7.80;73.50
24678;DHT22;12800;53.094;8.778;2023-03-01T17:09:42;7.80;73.60
24678;DHT22;12800;53.094;8.778;2023-03-01T17:12:07;7.70;73.70
24678;DHT22;12800;53.094;8.778;2023-03-01T17:14:34;7.60;73.80
24678;DHT22;12800;53.094;8.778;2023-03-01T17:16:59;7.60;74.70
24678;DHT22;12800;53.094;8.778;2023-03-01T17:19:27;7.60;74.10
24678;DHT22;12800;53.094;8.778;2023-03-01T17:21:54;7.60;74.30
24678;DHT22;12800;53.094;8.778;2023-03-01T17:24:19;7.50;74.40
24678;DHT22;12800;53.094;8.778;2023-03-01T17:26:45;7.50;74.50
24678;DHT22;12800;53.094;8.778;2023-03-01T17:29:11;7.40;75.00
24678;DHT22;12800;53.094;8.778;2023-03-01T17:31:38;7.40;74.70
24678;DHT22;12800;53.094;8.778;2023-03-01T17:34:03;7.40;74.90
24678;DHT22;12800;53.094;8.778;2023-03-01T17:36:29;7.30;75.00
24678;DHT22;12800;53.094;8.778;2023-03-01T17:38:54;7.30;75.10
24678;DHT22;12800;53.094;8.778;2023-03-01T17:41:20;7.30;75.20
24678;DHT22;12800;53.094;8.778;2023-03-01T17:43:48;7.20;75.20
24678;DHT22;12800;53.094;8.778;2023-03-01T17:46:13;7.10;75.30
24678;DHT22;12800;53.094;8.778;2023-03-01T17:48:39;7.10;75.50
24678;DHT22;12800;53.094;8.778;2023-03-01T17:51:09;7.10;75.60
24678;DHT22;12800;53.094;8.778;2023-03-01T17:53:36;7.10;75.70
24678;DHT22;12800;53.094;8.778;2023-03-01T17:56:04;7.00;75.90
24678;DHT22;12800;53.094;8.778;2023-03-01T17:58:30;7.00;75.90
24678;DHT22;12800;53.094;8.778;2023-03-01T18:00:56;7.00;76.00
24678;DHT22;12800;53.094;8.778;2023-03-01T18:03:30;6.90;76.20